Time;durP1;ratioP1;P1;durP2;ratioP2;P2;SDS_P1;SDS_P2;PMS_P1;PMS_P2;Temp;Humidity;BMP_temperature;BMP_pressure;BME280_temperature;BME280_humidity;BME280_pressure;Samples;Min_cycle;Max_cycle;Signal;HPM_P1;HPM_P2
2022/08/19 00:01:13;;;;;;;24.27;11.88;;;;;;;;;;5022270;28;20076;-80
2022/08/19 00:03:38;;;;;;;21.15;12.32;;;;;;;;;;5042347;28;20029;-79
2022/08/19 00:06:04;;;;;;;19.95;11.02;;;;;;;;;;5024053;28;20107;-80
2022/08/19 00:08:29;;;;;;;20.08;11.02;;;;;;;;;;5024942;28;20401;-79
2022/08/19 00:10:54;;;;;;;21.20;11.98;;;;;;;;;;5023504;28;20033;-79
2022/08/19 00:13:19;;;;;;;19.67;10.77;;;;;;;;;;5054991;28;20041;-79
2022/08/19 00:15:45;;;;;;;21.02;11.65;;;;;;;;;;5023242;28;20367;-80
2022/08/19 00:18:13;;;;;;;22.70;11.60;;;;;;;;;;5058300;28;20420;-79
2022/08/19 00:20:40;;;;;;;27.95;12.25;;;;;;;;;;5023118;28;20504;-79
2022/08/19 00:23:05;;;;;;;18.95;9.95;;;;;;;;;;5040294;28;20045;-80
2022/08/19 00:25:30;;;;;;;20.38;10.65;;;;;;;;;;5016324;28;20056;-80
2022/08/19 00:27:56;;;;;;;20.25;11.48;;;;;;;;;;5024054;28;20021;-79
2022/08/19 00:30:21;;;;;;;23.10;13.00;;;;;;;;;;5023723;28;20018;-79
2022/08/19 00:32:46;;;;;;;20.90;10.90;;;;;;;;;;5025535;28;20112;-80
2022/08/19 00:35:12;;;;;;;20.23;11.30;;;;;;;;;;5040929;28;20270;-79
2022/08/19 00:37:38;;;;;;;19.00;10.63;;;;;;;;;;5040608;28;20037;-80
2022/08/19 00:40:05;;;;;;;23.60;12.48;;;;;;;;;;5023029;28;20014;-80
2022/08/19 00:42:30;;;;;;;24.90;10.98;;;;;;;;;;5022865;28;20067;-80
2022/08/19 00:44:55;;;;;;;22.65;12.15;;;;;;;;;;5037476;28;20022;-79
2022/08/19 00:47:21;;;;;;;25.30;12.95;;;;;;;;;;5025089;28;20030;-79
2022/08/19 00:49:50;;;;;;;27.02;13.55;;;;;;;;;;5022322;28;20029;-80
2022/08/19 00:52:26;;;;;;;20.20;11.25;;;;;;;;;;5024613;28;20472;-79
2022/08/19 00:54:52;;;;;;;28.27;13.07;;;;;;;;;;5032740;28;20477;-79
2022/08/19 00:57:20;;;;;;;25.42;13.15;;;;;;;;;;5023690;28;20703;-80
2022/08/19 00:59:47;;;;;;;25.00;12.07;;;;;;;;;;5020587;28;20576;-80
2022/08/19 01:02:12;;;;;;;25.27;15.13;;;;;;;;;;5020205;28;20414;-79
2022/08/19 01:04:37;;;;;;;23.92;12.68;;;;;;;;;;5024747;28;20026;-80
2022/08/19 01:07:03;;;;;;;27.67;12.30;;;;;;;;;;5023406;28;20021;-79
2022/08/19 01:09:29;;;;;;;28.55;13.25;;;;;;;;;;5022836;28;20041;-79
2022/08/19 01:11:54;;;;;;;25.10;13.15;;;;;;;;;;5034827;28;20034;-79
2022/08/19 01:14:19;;;;;;;22.92;11.75;;;;;;;;;;5022956;28;20029;-79
2022/08/19 01:16:46;;;;;;;27.58;13.70;;;;;;;;;;5023526;28;20040;-79
2022/08/19 01:19:38;;;;;;;24.45;11.50;;;;;;;;;;5017650;28;20509;-79
2022/08/19 01:22:16;;;;;;;26.08;12.43;;;;;;;;;;5019995;28;20049;-79
2022/08/19 01:24:41;;;;;;;25.05;13.00;;;;;;;;;;5023214;28;20083;-79
2022/08/19 01:27:07;;;;;;;24.67;13.48;;;;;;;;;;5022877;28;20017;-79
2022/08/19 01:29:34;;;;;;;26.67;13.27;;;;;;;;;;5021981;28;20033;-79
2022/08/19 01:32:00;;;;;;;27.52;14.05;;;;;;;;;;5020867;28;20118;-79
2022/08/19 01:34:25;;;;;;;29.05;15.00;;;;;;;;;;5021507;28;20785;-79
2022/08/19 01:36:51;;;;;;;26.27;12.85;;;;;;;;;;5039067;28;20025;-79
2022/08/19 01:39:18;;;;;;;27.95;14.40;;;;;;;;;;5024753;28;20029;-79
2022/08/19 01:41:44;;;;;;;29.77;15.57;;;;;;;;;;5023005;28;20029;-80
2022/08/19 01:44:10;;;;;;;28.60;14.57;;;;;;;;;;5022204;28;20033;-79
2022/08/19 01:46:35;;;;;;;26.95;14.35;;;;;;;;;;5018571;28;20097;-80
2022/08/19 01:49:01;;;;;;;27.67;13.18;;;;;;;;;;5025906;28;20350;-79
2022/08/19 01:51:27;;;;;;;28.88;13.73;;;;;;;;;;5019040;28;20026;-79
2022/08/19 01:53:56;;;;;;;29.90;14.40;;;;;;;;;;5052548;28;20355;-79
2022/08/19 01:56:25;;;;;;;27.05;13.75;;;;;;;;;;5017083;28;20037;-79
2022/08/19 01:58:54;;;;;;;23.42;11.48;;;;;;;;;;5019105;28;20044;-79
2022/08/19 02:01:19;;;;;;;26.98;13.20;;;;;;;;;;5031087;28;20076;-79
2022/08/19 02:03:45;;;;;;;24.35;12.05;;;;;;;;;;5021051;28;20029;-79
2022/08/19 02:06:11;;;;;;;27.27;12.75;;;;;;;;;;5019659;28;20081;-78
2022/08/19 02:08:37;;;;;;;24.75;12.07;;;;;;;;;;5036340;28;20502;-79
2022/08/19 02:11:03;;;;;;;27.85;13.15;;;;;;;;;;5016363;28;20053;-79
2022/08/19 02:13:28;;;;;;;29.90;13.68;;;;;;;;;;5019096;28;20095;-80
2022/08/19 02:15:53;;;;;;;28.20;13.63;;;;;;;;;;5017893;28;20151;-79
2022/08/19 02:18:19;;;;;;;29.38;12.88;;;;;;;;;;5034759;28;20565;-79
2022/08/19 02:20:46;;;;;;;26.40;12.38;;;;;;;;;;5020887;28;20028;-79
2022/08/19 02:23:12;;;;;;;32.72;13.02;;;;;;;;;;5023683;28;20482;-79
2022/08/19 02:25:37;;;;;;;29.70;14.43;;;;;;;;;;5022057;28;20049;-79
2022/08/19 02:28:03;;;;;;;25.33;13.55;;;;;;;;;;5037105;28;20121;-79
2022/08/19 02:30:28;;;;;;;25.55;12.45;;;;;;;;;;5021469;28;20371;-81
2022/08/19 02:32:54;;;;;;;25.75;13.05;;;;;;;;;;5020187;28;20034;-81
2022/08/19 02:35:19;;;;;;;30.73;15.00;;;;;;;;;;5036822;28;20029;-80
2022/08/19 02:40:35;;;;;;;26.83;14.25;;;;;;;;;;5019730;28;20056;-80
2022/08/19 02:43:00;;;;;;;25.38;13.20;;;;;;;;;;5019582;28;20389;-80
2022/08/19 02:45:26;;;;;;;25.35;12.88;;;;;;;;;;5017461;28;20026;-80
2022/08/19 02:47:51;;;;;;;26.27;14.88;;;;;;;;;;5015096;28;20022;-80
2022/08/19 02:50:17;;;;;;;30.90;13.93;;;;;;;;;;5020521;28;20034;-80
2022/08/19 02:52:42;;;;;;;26.92;13.32;;;;;;;;;;5013316;28;20038;-80
2022/08/19 02:55:08;;;;;;;25.02;12.60;;;;;;;;;;5016099;28;20041;-81
2022/08/19 02:57:34;;;;;;;27.30;14.10;;;;;;;;;;5019391;28;20033;-79
2022/08/19 02:59:59;;;;;;;29.17;15.50;;;;;;;;;;5033619;28;20029;-80
2022/08/19 03:02:25;;;;;;;35.22;17.50;;;;;;;;;;5019261;28;20127;-80
2022/08/19 03:04:50;;;;;;;25.48;13.75;;;;;;;;;;5018882;28;20075;-80
2022/08/19 03:07:18;;;;;;;36.67;16.52;;;;;;;;;;5024071;28;20549;-80
2022/08/19 03:09:44;;;;;;;33.53;17.55;;;;;;;;;;5039282;28;20421;-79
2022/08/19 03:12:12;;;;;;;33.58;15.55;;;;;;;;;;5022653;28;20026;-79
2022/08/19 03:14:37;;;;;;;29.63;16.42;;;;;;;;;;5037148;28;20500;-79
2022/08/19 03:17:04;;;;;;;32.53;16.77;;;;;;;;;;5019658;28;20026;-79
2022/08/19 03:19:29;;;;;;;28.15;15.70;;;;;;;;;;5037281;28;20068;-78
2022/08/19 03:21:55;;;;;;;36.45;17.35;;;;;;;;;;5039149;28;20497;-79
2022/08/19 03:24:20;;;;;;;29.60;15.35;;;;;;;;;;5058201;28;20109;-78
2022/08/19 03:26:47;;;;;;;28.33;14.80;;;;;;;;;;5019884;28;20041;-78
2022/08/19 03:29:13;;;;;;;37.05;16.20;;;;;;;;;;5022912;28;20037;-79
2022/08/19 03:31:42;;;;;;;31.80;16.63;;;;;;;;;;5037449;28;20022;-79
2022/08/19 03:34:17;;;;;;;30.02;15.23;;;;;;;;;;5040314;28;20018;-78
2022/08/19 03:36:42;;;;;;;32.00;16.23;;;;;;;;;;5023361;28;20463;-79
2022/08/19 03:39:08;;;;;;;32.50;16.02;;;;;;;;;;5018200;28;20113;-78
2022/08/19 03:41:40;;;;;;;35.95;16.00;;;;;;;;;;5035166;28;20115;-79
2022/08/19 03:44:05;;;;;;;30.52;16.23;;;;;;;;;;5025035;28;20032;-78
2022/08/19 03:46:32;;;;;;;32.20;16.40;;;;;;;;;;5017498;28;20542;-79
2022/08/19 03:48:59;;;;;;;35.22;15.80;;;;;;;;;;5021464;28;20097;-79
2022/08/19 03:51:24;;;;;;;29.48;15.82;;;;;;;;;;5019458;28;20485;-78
2022/08/19 03:53:50;;;;;;;34.28;16.92;;;;;;;;;;5022925;28;20048;-79
2022/08/19 03:56:15;;;;;;;32.40;16.33;;;;;;;;;;5024359;28;20536;-79
2022/08/19 03:58:41;;;;;;;32.35;16.85;;;;;;;;;;5019634;28;20022;-78
2022/08/19 04:01:07;;;;;;;36.47;16.13;;;;;;;;;;5023026;28;20116;-78
2022/08/19 04:03:32;;;;;;;39.05;16.45;;;;;;;;;;5027177;28;20028;-78
2022/08/19 04:05:57;;;;;;;30.25;16.88;;;;;;;;;;5021586;28;20029;-78
2022/08/19 04:08:23;;;;;;;42.28;17.98;;;;;;;;;;5024205;28;20476;-78
2022/08/19 04:10:49;;;;;;;33.17;18.17;;;;;;;;;;5018880;28;20048;-78
2022/08/19 04:13:17;;;;;;;41.70;17.58;;;;;;;;;;5026520;28;20094;-79
2022/08/19 04:15:46;;;;;;;36.35;16.58;;;;;;;;;;5022847;28;20072;-80
2022/08/19 04:18:11;;;;;;;33.17;17.27;;;;;;;;;;5020649;28;20029;-80
2022/08/19 04:20:41;;;;;;;37.63;19.02;;;;;;;;;;5056227;28;20056;-78
2022/08/19 04:23:06;;;;;;;35.15;17.23;;;;;;;;;;5024504;28;20036;-80
2022/08/19 04:25:38;;;;;;;36.95;16.63;;;;;;;;;;5024442;28;20017;-79
2022/08/19 04:28:04;;;;;;;39.10;18.60;;;;;;;;;;5024886;28;20508;-79
2022/08/19 04:30:29;;;;;;;33.28;16.40;;;;;;;;;;5031099;28;20030;-80
2022/08/19 04:32:54;;;;;;;39.40;18.05;;;;;;;;;;5021226;28;20025;-80
2022/08/19 04:35:19;;;;;;;37.92;17.98;;;;;;;;;;5022064;28;20029;-80
2022/08/19 04:37:45;;;;;;;36.95;18.63;;;;;;;;;;5037721;28;20378;-80
2022/08/19 04:42:54;;;;;;;35.03;17.45;;;;;;;;;;5026955;28;20071;-78
2022/08/19 04:45:20;;;;;;;40.70;18.27;;;;;;;;;;5023794;28;20033;-80
2022/08/19 04:47:45;;;;;;;37.17;18.77;;;;;;;;;;5037786;28;20484;-78
2022/08/19 04:50:11;;;;;;;40.63;18.92;;;;;;;;;;5024031;28;20025;-78
2022/08/19 04:52:37;;;;;;;36.72;17.98;;;;;;;;;;5023378;28;20033;-78
2022/08/19 04:55:04;;;;;;;38.30;21.17;;;;;;;;;;5024978;28;20493;-78
2022/08/19 04:57:29;;;;;;;42.78;19.35;;;;;;;;;;5016713;28;20069;-78
2022/08/19 04:59:55;;;;;;;41.75;19.63;;;;;;;;;;5057062;28;20061;-78
2022/08/19 05:02:24;;;;;;;44.60;20.63;;;;;;;;;;5018825;28;20025;-78
2022/08/19 05:04:57;;;;;;;36.95;18.80;;;;;;;;;;5021985;28;20737;-77
2022/08/19 05:07:22;;;;;;;40.08;20.00;;;;;;;;;;5017411;28;20022;-80
2022/08/19 05:09:48;;;;;;;38.47;19.10;;;;;;;;;;5022925;28;20057;-78
2022/08/19 05:12:13;;;;;;;46.05;20.95;;;;;;;;;;5016505;28;20065;-78
2022/08/19 05:14:38;;;;;;;39.38;19.05;;;;;;;;;;5024398;28;20033;-79
2022/08/19 05:17:03;;;;;;;43.78;20.80;;;;;;;;;;5020824;28;20029;-80
2022/08/19 05:24:56;;;;;;;44.92;19.75;;;;;;;;;;5023247;28;22043;-78
2022/08/19 05:27:21;;;;;;;42.08;19.98;;;;;;;;;;5019283;28;20030;-78
2022/08/19 05:29:47;;;;;;;47.15;20.15;;;;;;;;;;5022058;28;20029;-78
2022/08/19 05:32:12;;;;;;;43.53;19.27;;;;;;;;;;5020017;28;20032;-80
2022/08/19 05:34:37;;;;;;;45.03;21.23;;;;;;;;;;5020215;28;20307;-79
2022/08/19 05:37:04;;;;;;;48.08;22.58;;;;;;;;;;5035554;28;20440;-78
2022/08/19 05:39:31;;;;;;;40.70;18.75;;;;;;;;;;5020002;28;20473;-78
2022/08/19 05:42:00;;;;;;;53.08;23.55;;;;;;;;;;5025492;28;20044;-78
2022/08/19 05:44:27;;;;;;;60.17;26.42;;;;;;;;;;5022925;28;20466;-78
2022/08/19 05:46:52;;;;;;;53.38;23.10;;;;;;;;;;5021355;28;20075;-78
2022/08/19 05:49:18;;;;;;;48.33;23.67;;;;;;;;;;5013862;28;20034;-78
2022/08/19 05:51:44;;;;;;;52.88;23.60;;;;;;;;;;5020480;28;20392;-78
2022/08/19 05:54:11;;;;;;;48.63;22.65;;;;;;;;;;5021822;28;20470;-78
2022/08/19 05:56:37;;;;;;;36.85;17.92;;;;;;;;;;5019507;28;21760;-78
2022/08/19 05:59:03;;;;;;;33.63;17.00;;;;;;;;;;5017329;28;20068;-78
2022/08/19 06:01:29;;;;;;;55.15;24.38;;;;;;;;;;5022736;28;20021;-78
2022/08/19 06:03:55;;;;;;;44.83;22.08;;;;;;;;;;5024115;28;20055;-78
2022/08/19 06:06:23;;;;;;;54.88;27.25;;;;;;;;;;5034902;28;20041;-78
2022/08/19 06:08:50;;;;;;;43.83;19.45;;;;;;;;;;5020613;28;20120;-78
2022/08/19 06:11:44;;;;;;;47.88;23.70;;;;;;;;;;5029506;28;20021;-78
2022/08/19 06:14:18;;;;;;;48.45;24.75;;;;;;;;;;5006595;28;20578;-78
2022/08/19 06:16:44;;;;;;;49.47;24.00;;;;;;;;;;5028267;28;20027;-78
2022/08/19 06:19:15;;;;;;;65.18;30.15;;;;;;;;;;5024251;28;20506;-78
2022/08/19 06:21:43;;;;;;;44.78;19.60;;;;;;;;;;5011851;28;20026;-80
2022/08/19 06:24:13;;;;;;;37.67;15.35;;;;;;;;;;5031490;28;20033;-80
2022/08/19 06:26:39;;;;;;;62.03;26.65;;;;;;;;;;5034625;28;20052;-80
2022/08/19 06:29:06;;;;;;;69.60;30.20;;;;;;;;;;5034151;28;20018;-80
2022/08/19 06:31:33;;;;;;;42.20;20.13;;;;;;;;;;5026624;28;20030;-79
2022/08/19 06:33:58;;;;;;;53.78;24.65;;;;;;;;;;5019971;28;20037;-80
2022/08/19 06:36:29;;;;;;;41.30;20.40;;;;;;;;;;5036951;28;20040;-80
2022/08/19 06:38:55;;;;;;;61.67;28.83;;;;;;;;;;5019093;28;20022;-80
2022/08/19 06:41:20;;;;;;;58.35;26.35;;;;;;;;;;5028577;28;20142;-80
2022/08/19 06:43:47;;;;;;;53.72;24.83;;;;;;;;;;5024586;28;20133;-82
2022/08/19 06:46:14;;;;;;;41.17;20.23;;;;;;;;;;5044538;28;20033;-81
2022/08/19 06:48:39;;;;;;;30.10;15.23;;;;;;;;;;5060449;28;20033;-81
2022/08/19 06:51:05;;;;;;;42.47;21.20;;;;;;;;;;5059246;28;20362;-81
2022/08/19 06:53:31;;;;;;;35.38;17.92;;;;;;;;;;5026453;28;20021;-81
2022/08/19 06:56:00;;;;;;;44.55;19.67;;;;;;;;;;5023891;28;20394;-81
2022/08/19 06:58:25;;;;;;;37.70;17.15;;;;;;;;;;5023679;28;20025;-81
2022/08/19 07:00:51;;;;;;;34.35;19.10;;;;;;;;;;5042859;28;20532;-80
2022/08/19 07:03:16;;;;;;;40.50;20.05;;;;;;;;;;5030021;28;20034;-80
2022/08/19 07:05:42;;;;;;;41.28;18.08;;;;;;;;;;5048229;28;20125;-80
2022/08/19 07:08:07;;;;;;;65.57;28.90;;;;;;;;;;5030973;28;20033;-81
2022/08/19 07:10:34;;;;;;;37.67;19.35;;;;;;;;;;5042406;28;20076;-80
2022/08/19 07:13:00;;;;;;;48.53;22.85;;;;;;;;;;5062695;28;20033;-80
2022/08/19 07:15:25;;;;;;;49.55;23.58;;;;;;;;;;5059735;28;20036;-80
2022/08/19 07:17:51;;;;;;;60.55;25.48;;;;;;;;;;5029825;28;20081;-80
2022/08/19 07:20:16;;;;;;;40.15;21.02;;;;;;;;;;5028647;28;20030;-80
2022/08/19 07:22:41;;;;;;;66.68;28.98;;;;;;;;;;5028265;28;20017;-81
2022/08/19 07:25:08;;;;;;;59.75;27.42;;;;;;;;;;5044594;28;20118;-80
2022/08/19 07:27:34;;;;;;;60.58;28.50;;;;;;;;;;5029037;28;20721;-81
2022/08/19 07:29:59;;;;;;;54.42;23.92;;;;;;;;;;5045948;28;20033;-80
2022/08/19 07:32:27;;;;;;;72.00;31.67;;;;;;;;;;5032595;28;20473;-80
2022/08/19 07:34:53;;;;;;;75.28;33.22;;;;;;;;;;5045916;28;20036;-80
2022/08/19 07:37:18;;;;;;;82.38;36.72;;;;;;;;;;5042810;28;20096;-81
2022/08/19 07:39:43;;;;;;;79.68;36.97;;;;;;;;;;5045886;28;20489;-80
2022/08/19 07:42:10;;;;;;;61.35;26.98;;;;;;;;;;5048845;28;20037;-80
2022/08/19 07:44:36;;;;;;;70.53;31.40;;;;;;;;;;5024756;28;20022;-81
2022/08/19 07:47:03;;;;;;;69.00;29.23;;;;;;;;;;5032137;28;20013;-80
2022/08/19 07:49:28;;;;;;;62.08;30.55;;;;;;;;;;5021022;28;20417;-81
2022/08/19 07:51:55;;;;;;;65.65;29.48;;;;;;;;;;5043502;28;20109;-81
2022/08/19 07:54:21;;;;;;;53.50;25.38;;;;;;;;;;5056525;28;20029;-81
2022/08/19 07:56:47;;;;;;;79.95;37.90;;;;;;;;;;5030558;28;20030;-80
2022/08/19 07:59:12;;;;;;;85.55;35.63;;;;;;;;;;5027771;28;20128;-81
2022/08/19 08:01:39;;;;;;;92.55;37.92;;;;;;;;;;5023195;28;20416;-81
2022/08/19 08:09:38;;;;;;;67.50;32.88;;;;;;;;;;5021780;28;20164;-81
2022/08/19 08:12:15;;;;;;;78.43;34.88;;;;;;;;;;5042008;28;20030;-81
2022/08/19 08:14:43;;;;;;;85.28;39.05;;;;;;;;;;5025291;28;20116;-81
2022/08/19 08:17:09;;;;;;;80.88;37.97;;;;;;;;;;5022975;28;20021;-81
2022/08/19 08:19:34;;;;;;;80.55;34.67;;;;;;;;;;5039587;28;20062;-82
2022/08/19 08:22:00;;;;;;;81.90;37.45;;;;;;;;;;5027784;28;20109;-81
2022/08/19 08:24:27;;;;;;;82.40;37.88;;;;;;;;;;5017264;28;20072;-82
2022/08/19 08:26:57;;;;;;;65.22;28.20;;;;;;;;;;5017574;28;20030;-81
2022/08/19 08:29:22;;;;;;;65.85;30.63;;;;;;;;;;5028603;28;20844;-81
2022/08/19 08:31:48;;;;;;;68.15;32.67;;;;;;;;;;5040289;28;20041;-82
2022/08/19 08:34:13;;;;;;;69.63;30.13;;;;;;;;;;5043720;28;20021;-81
2022/08/19 08:36:44;;;;;;;65.60;30.92;;;;;;;;;;5039423;28;20368;-81
2022/08/19 08:39:10;;;;;;;67.18;29.50;;;;;;;;;;5020767;28;20033;-81
2022/08/19 08:41:49;;;;;;;57.65;28.00;;;;;;;;;;5022366;28;20033;-81
2022/08/19 08:44:20;;;;;;;67.65;30.83;;;;;;;;;;5043073;28;20044;-81
2022/08/19 08:46:50;;;;;;;63.83;30.45;;;;;;;;;;5021799;28;20065;-80
2022/08/19 08:49:20;;;;;;;51.92;23.70;;;;;;;;;;5018122;28;20041;-78
2022/08/19 08:51:52;;;;;;;56.97;25.85;;;;;;;;;;5019336;28;20033;-79
2022/08/19 08:54:20;;;;;;;59.17;30.92;;;;;;;;;;5045944;28;20030;-79
2022/08/19 08:56:46;;;;;;;53.72;25.30;;;;;;;;;;5012362;28;20030;-79
2022/08/19 08:59:32;;;;;;;59.20;28.20;;;;;;;;;;5018366;28;20027;-79
2022/08/19 09:01:57;;;;;;;63.10;30.23;;;;;;;;;;5021857;28;20444;-78
2022/08/19 09:04:22;;;;;;;64.28;28.95;;;;;;;;;;5039105;28;20045;-78
2022/08/19 09:06:56;;;;;;;54.88;22.70;;;;;;;;;;5028003;28;20547;-78
2022/08/19 09:09:32;;;;;;;55.13;26.30;;;;;;;;;;5035761;28;20456;-78
2022/08/19 09:12:11;;;;;;;60.53;29.20;;;;;;;;;;5036834;28;20080;-79
2022/08/19 09:14:58;;;;;;;58.90;27.67;;;;;;;;;;5023127;28;20029;-84
2022/08/19 09:17:27;;;;;;;68.63;30.55;;;;;;;;;;5034917;28;20051;-84
2022/08/19 09:19:52;;;;;;;61.83;30.10;;;;;;;;;;5031207;28;20473;-84
2022/08/19 09:22:21;;;;;;;72.65;33.13;;;;;;;;;;5030771;28;20051;-84
2022/08/19 09:24:46;;;;;;;63.05;30.10;;;;;;;;;;5042286;28;20088;-84
2022/08/19 09:27:11;;;;;;;64.00;31.95;;;;;;;;;;5027761;28;20018;-84
2022/08/19 09:29:39;;;;;;;64.90;30.20;;;;;;;;;;5022240;28;20387;-84
2022/08/19 09:32:05;;;;;;;73.68;33.85;;;;;;;;;;5023829;28;20512;-84
2022/08/19 09:34:31;;;;;;;69.45;33.05;;;;;;;;;;5028229;28;20026;-84
2022/08/19 09:36:58;;;;;;;69.20;32.92;;;;;;;;;;5046480;28;20482;-84
2022/08/19 09:39:23;;;;;;;63.38;32.40;;;;;;;;;;5020391;28;20040;-85
2022/08/19 09:41:49;;;;;;;63.13;32.88;;;;;;;;;;5025100;28;20033;-84
2022/08/19 09:44:15;;;;;;;59.40;30.80;;;;;;;;;;5033973;28;20087;-85
2022/08/19 09:46:41;;;;;;;75.07;37.75;;;;;;;;;;5024644;28;20025;-85
2022/08/19 09:49:09;;;;;;;74.60;37.60;;;;;;;;;;5039628;28;20120;-84
2022/08/19 09:51:34;;;;;;;69.63;33.97;;;;;;;;;;5060189;28;20026;-85
2022/08/19 09:54:01;;;;;;;73.75;37.17;;;;;;;;;;5021189;28;20051;-85
2022/08/19 09:56:26;;;;;;;61.50;33.75;;;;;;;;;;5016279;28;20028;-84
2022/08/19 09:58:51;;;;;;;76.75;41.10;;;;;;;;;;5009072;28;20029;-85
2022/08/19 10:01:18;;;;;;;77.60;40.80;;;;;;;;;;5052680;28;20033;-86
2022/08/19 10:03:49;;;;;;;76.00;38.53;;;;;;;;;;5051927;28;20079;-85
2022/08/19 10:06:14;;;;;;;88.30;45.20;;;;;;;;;;5014004;28;20051;-84
2022/08/19 10:08:39;;;;;;;73.00;38.30;;;;;;;;;;5018370;28;20038;-85
2022/08/19 10:11:05;;;;;;;92.28;41.85;;;;;;;;;;5053276;28;20646;-85
2022/08/19 10:13:31;;;;;;;72.85;39.85;;;;;;;;;;5025432;28;21009;-84
2022/08/19 10:16:03;;;;;;;99.57;48.90;;;;;;;;;;5029394;28;20488;-86
2022/08/19 10:18:29;;;;;;;86.90;42.42;;;;;;;;;;5060567;28;20028;-85
2022/08/19 10:21:03;;;;;;;76.85;37.05;;;;;;;;;;5031689;28;20463;-84
2022/08/19 10:23:30;;;;;;;65.43;34.45;;;;;;;;;;5045297;28;20032;-87
2022/08/19 10:25:59;;;;;;;74.82;36.38;;;;;;;;;;5032455;28;20025;-85
2022/08/19 10:28:24;;;;;;;84.82;39.20;;;;;;;;;;5039120;28;20390;-86
2022/08/19 10:30:49;;;;;;;67.25;35.15;;;;;;;;;;5028650;28;20033;-87
2022/08/19 10:33:15;;;;;;;69.63;34.17;;;;;;;;;;5040669;28;20037;-88
2022/08/19 10:35:40;;;;;;;67.03;31.50;;;;;;;;;;5024514;28;20285;-87
2022/08/19 10:38:05;;;;;;;58.38;30.50;;;;;;;;;;5058276;28;20033;-87
2022/08/19 10:40:30;;;;;;;53.95;29.42;;;;;;;;;;5025868;28;20034;-87
2022/08/19 10:42:56;;;;;;;56.92;29.77;;;;;;;;;;5025244;28;20029;-89
2022/08/19 10:45:23;;;;;;;50.13;26.77;;;;;;;;;;5043852;28;20988;-91
2022/08/19 10:47:48;;;;;;;49.55;25.70;;;;;;;;;;5041225;28;20033;-89
2022/08/19 10:53:16;;;;;;;49.85;27.13;;;;;;;;;;5034239;28;20063;-89
2022/08/19 11:01:48;;;;;;;64.10;29.95;;;;;;;;;;5028967;28;20033;-91
2022/08/19 11:04:17;;;;;;;69.00;31.20;;;;;;;;;;5021510;28;20047;-89
2022/08/19 11:06:43;;;;;;;55.53;27.45;;;;;;;;;;5040865;28;20025;-90
2022/08/19 11:09:09;;;;;;;68.50;31.30;;;;;;;;;;5020594;28;20349;-90
2022/08/19 11:11:45;;;;;;;72.68;32.15;;;;;;;;;;5017265;28;20040;-90
2022/08/19 11:14:11;;;;;;;67.10;32.90;;;;;;;;;;5026327;28;20037;-82
2022/08/19 11:16:38;;;;;;;63.72;28.40;;;;;;;;;;5023916;28;20056;-82
2022/08/19 11:19:04;;;;;;;56.83;28.25;;;;;;;;;;5015219;28;20021;-80
2022/08/19 11:21:33;;;;;;;54.08;26.30;;;;;;;;;;5042159;28;20052;-81
2022/08/19 11:24:00;;;;;;;59.17;26.95;;;;;;;;;;5029928;28;20033;-87
2022/08/19 11:26:26;;;;;;;55.53;26.45;;;;;;;;;;5041163;28;20024;-88
2022/08/19 11:28:53;;;;;;;59.60;28.25;;;;;;;;;;5039672;28;20088;-86
2022/08/19 11:31:20;;;;;;;72.75;32.33;;;;;;;;;;5037022;28;20044;-88
2022/08/19 11:33:45;;;;;;;70.68;30.83;;;;;;;;;;5024107;28;20033;-88
2022/08/19 11:36:11;;;;;;;71.97;30.05;;;;;;;;;;5021615;28;20051;-88
2022/08/19 11:38:36;;;;;;;66.13;30.20;;;;;;;;;;5026519;28;20045;-87
2022/08/19 11:41:03;;;;;;;75.50;36.60;;;;;;;;;;5021582;28;20030;-86
2022/08/19 11:43:29;;;;;;;70.38;32.33;;;;;;;;;;5042543;28;20038;-88
2022/08/19 11:45:58;;;;;;;81.25;34.67;;;;;;;;;;5029680;28;20036;-88
2022/08/19 11:48:23;;;;;;;76.45;34.38;;;;;;;;;;5026021;28;20143;-89
2022/08/19 11:50:49;;;;;;;74.63;33.15;;;;;;;;;;5031290;28;20068;-88
2022/08/19 11:53:15;;;;;;;81.20;36.85;;;;;;;;;;5046507;28;20493;-79
2022/08/19 11:55:42;;;;;;;70.22;33.70;;;;;;;;;;5034783;28;20045;-84
2022/08/19 11:58:07;;;;;;;73.93;32.30;;;;;;;;;;5025589;28;20060;-83
2022/08/19 12:00:36;;;;;;;71.65;31.80;;;;;;;;;;5021751;28;20112;-84
2022/08/19 12:03:01;;;;;;;70.03;30.63;;;;;;;;;;5028025;28;20027;-82
2022/08/19 12:05:27;;;;;;;68.60;30.77;;;;;;;;;;5031448;28;20436;-82
2022/08/19 12:07:54;;;;;;;77.38;29.45;;;;;;;;;;5040600;28;20100;-82
2022/08/19 12:10:19;;;;;;;59.03;25.83;;;;;;;;;;5024657;28;20456;-84
2022/08/19 12:12:45;;;;;;;62.83;27.08;;;;;;;;;;5044396;28;20026;-84
2022/08/19 12:15:11;;;;;;;61.33;27.42;;;;;;;;;;5039592;28;20026;-84
2022/08/19 12:17:37;;;;;;;55.28;26.52;;;;;;;;;;5029615;28;20045;-82
2022/08/19 12:20:03;;;;;;;68.38;29.35;;;;;;;;;;5022244;28;20030;-85
2022/08/19 12:22:28;;;;;;;57.88;25.27;;;;;;;;;;5022968;28;20021;-82
2022/08/19 12:24:54;;;;;;;58.95;28.13;;;;;;;;;;5027705;28;20025;-82
2022/08/19 12:27:20;;;;;;;53.50;27.35;;;;;;;;;;5042628;28;20063;-84
2022/08/19 12:29:45;;;;;;;53.22;25.63;;;;;;;;;;5024432;28;20021;-82
2022/08/19 12:32:10;;;;;;;47.35;23.60;;;;;;;;;;5046148;28;20559;-84
2022/08/19 12:34:37;;;;;;;53.83;24.95;;;;;;;;;;5028839;28;20065;-84
2022/08/19 12:37:04;;;;;;;56.80;25.35;;;;;;;;;;5047802;28;20044;-81
2022/08/19 12:39:30;;;;;;;52.88;25.80;;;;;;;;;;5025416;28;20028;-83
2022/08/19 12:41:56;;;;;;;63.63;30.70;;;;;;;;;;5028999;28;20028;-81
2022/08/19 12:44:22;;;;;;;57.05;26.77;;;;;;;;;;5020385;28;20482;-80
2022/08/19 12:46:48;;;;;;;58.28;27.38;;;;;;;;;;5031898;28;20481;-81
2022/08/19 12:49:14;;;;;;;65.22;31.08;;;;;;;;;;5026216;28;20083;-81
2022/08/19 12:51:40;;;;;;;63.65;30.52;;;;;;;;;;5043400;28;20021;-80
2022/08/19 12:54:09;;;;;;;59.97;27.48;;;;;;;;;;5027938;28;20025;-80
2022/08/19 12:56:34;;;;;;;45.72;23.70;;;;;;;;;;5031377;28;20037;-81
2022/08/19 12:59:03;;;;;;;50.65;21.73;;;;;;;;;;5019995;28;20111;-83
2022/08/19 13:01:32;;;;;;;40.35;20.90;;;;;;;;;;5024866;28;20041;-80
2022/08/19 13:03:57;;;;;;;41.78;21.85;;;;;;;;;;5032645;28;20025;-83
2022/08/19 13:06:23;;;;;;;47.53;22.13;;;;;;;;;;5029389;28;20414;-83
2022/08/19 13:08:48;;;;;;;45.53;22.13;;;;;;;;;;5025979;28;20485;-81
2022/08/19 13:11:15;;;;;;;45.95;24.10;;;;;;;;;;5024451;28;20301;-85
2022/08/19 13:13:44;;;;;;;44.30;22.65;;;;;;;;;;5024892;28;20282;-81
2022/08/19 13:16:13;;;;;;;45.45;22.50;;;;;;;;;;5029498;28;20760;-81
2022/08/19 13:18:39;;;;;;;42.00;22.38;;;;;;;;;;5060065;28;20056;-84
2022/08/19 13:21:05;;;;;;;50.30;23.27;;;;;;;;;;5027254;28;20053;-85
2022/08/19 13:23:31;;;;;;;47.13;24.08;;;;;;;;;;5022077;28;21864;-80
2022/08/19 13:25:57;;;;;;;45.63;23.98;;;;;;;;;;5039444;28;20064;-83
2022/08/19 13:28:22;;;;;;;51.58;24.52;;;;;;;;;;5054315;28;20048;-85
2022/08/19 13:33:33;;;;;;;51.50;27.80;;;;;;;;;;5027234;28;20397;-82
2022/08/19 13:36:00;;;;;;;45.30;24.73;;;;;;;;;;5023113;28;20415;-82
2022/08/19 13:38:25;;;;;;;44.40;22.73;;;;;;;;;;5023850;28;20100;-85
2022/08/19 13:40:52;;;;;;;49.20;23.17;;;;;;;;;;5028872;28;20025;-86
2022/08/19 13:43:17;;;;;;;46.88;23.77;;;;;;;;;;5039737;28;20029;-82
2022/08/19 13:45:43;;;;;;;49.85;23.63;;;;;;;;;;5025224;28;20346;-81
2022/08/19 13:48:08;;;;;;;50.70;26.45;;;;;;;;;;5027382;28;20037;-82
2022/08/19 13:50:35;;;;;;;44.15;24.42;;;;;;;;;;5026925;28;20021;-85
2022/08/19 13:53:02;;;;;;;50.05;23.45;;;;;;;;;;5025989;28;20044;-81
2022/08/19 13:55:27;;;;;;;42.33;22.77;;;;;;;;;;5027551;28;20468;-82
2022/08/19 13:57:53;;;;;;;45.33;24.48;;;;;;;;;;5023422;28;20026;-81
2022/08/19 14:00:18;;;;;;;54.60;28.00;;;;;;;;;;5022395;28;20767;-85
2022/08/19 14:02:45;;;;;;;59.85;31.42;;;;;;;;;;5026765;28;20117;-85
2022/08/19 14:05:11;;;;;;;69.53;32.65;;;;;;;;;;5018877;28;20103;-82
2022/08/19 14:07:37;;;;;;;62.35;30.45;;;;;;;;;;5013685;28;20750;-84
2022/08/19 14:10:03;;;;;;;75.35;35.65;;;;;;;;;;5023954;28;20044;-84
2022/08/19 14:12:32;;;;;;;85.75;39.78;;;;;;;;;;5030976;28;20542;-90
2022/08/19 14:14:59;;;;;;;80.97;38.05;;;;;;;;;;5038916;28;20124;-88
2022/08/19 14:17:24;;;;;;;83.72;36.42;;;;;;;;;;5028450;28;20105;-88
2022/08/19 14:19:50;;;;;;;74.95;36.88;;;;;;;;;;5025523;28;20037;-88
2022/08/19 14:22:18;;;;;;;85.20;38.65;;;;;;;;;;5024720;28;20555;-89
2022/08/19 14:24:50;;;;;;;76.68;35.88;;;;;;;;;;5027781;28;20025;-89
2022/08/19 14:27:22;;;;;;;78.43;34.45;;;;;;;;;;5021628;28;20022;-88
2022/08/19 14:29:47;;;;;;;;;;;;;;;;;;5024681;28;20043;-87
2022/08/19 14:32:19;;;;;;;72.13;35.10;;;;;;;;;;5041548;28;20377;-87
2022/08/19 14:34:51;;;;;;;78.15;36.45;;;;;;;;;;5023464;28;20341;-89
2022/08/19 14:37:16;;;;;;;75.28;35.15;;;;;;;;;;5026137;28;20028;-89
2022/08/19 14:39:54;;;;;;;75.28;37.17;;;;;;;;;;5025651;28;20052;-90
2022/08/19 14:42:22;;;;;;;68.88;33.75;;;;;;;;;;5023259;28;20128;-88
2022/08/19 14:44:53;;;;;;;61.58;29.10;;;;;;;;;;5024129;28;20026;-89